Time;durP1;ratioP1;P1;durP2;ratioP2;P2;SDS_P1;SDS_P2;PMS_P1;PMS_P2;Temp;Humidity;BMP_temperature;BMP_pressure;BME280_temperature;BME280_humidity;BME280_pressure;Samples;Min_cycle;Max_cycle;Signal;HPM_P1;HPM_P2
2024/04/21 00:01:49;;;;;;;;;;;4.30;99.90;;;;;;5451414;26;20267;-74
2024/04/21 00:04:14;;;;;;;;;;;4.20;99.90;;;;;;5451753;26;19935;-73
2024/04/21 00:06:40;;;;;;;;;;;4.10;99.90;;;;;;5451718;26;19959;-74
2024/04/21 00:09:05;;;;;;;;;;;4.00;99.90;;;;;;5419745;26;20358;-73
2024/04/21 00:11:31;;;;;;;;;;;4.00;99.90;;;;;;5419822;26;20163;-73
2024/04/21 00:13:56;;;;;;;;;;;3.90;99.90;;;;;;5449764;26;19966;-73
2024/04/21 00:16:22;;;;;;;;;;;3.90;99.90;;;;;;5449727;26;19965;-73
2024/04/21 00:18:48;;;;;;;;;;;3.90;99.90;;;;;;5450615;26;19936;-74
2024/04/21 00:21:13;;;;;;;;;;;3.90;99.90;;;;;;5451682;26;19924;-74
2024/04/21 00:23:39;;;;;;;;;;;3.90;99.90;;;;;;5451681;26;19925;-73
2024/04/21 00:26:05;;;;;;;;;;;3.90;99.90;;;;;;5451661;26;19939;-73
2024/04/21 00:28:30;;;;;;;;;;;4.00;99.90;;;;;;5451262;26;19924;-74
2024/04/21 00:30:56;;;;;;;;;;;4.00;99.90;;;;;;5449567;26;19924;-72
2024/04/21 00:33:22;;;;;;;;;;;4.00;99.90;;;;;;5450773;26;20382;-74
2024/04/21 00:35:47;;;;;;;;;;;4.00;99.90;;;;;;5449805;26;19925;-74
2024/04/21 00:38:14;;;;;;;;;;;4.00;99.90;;;;;;5450873;26;19924;-73
2024/04/21 00:40:39;;;;;;;;;;;4.00;99.90;;;;;;5451285;26;19932;-73
2024/04/21 00:43:05;;;;;;;;;;;3.90;99.90;;;;;;5451239;26;19924;-73
2024/04/21 00:45:31;;;;;;;;;;;4.00;99.90;;;;;;5449520;26;19932;-74
2024/04/21 00:47:57;;;;;;;;;;;4.00;99.90;;;;;;5419770;26;20265;-74
2024/04/21 00:50:24;;;;;;;;;;;4.00;99.90;;;;;;5450972;26;19924;-74
2024/04/21 00:52:50;;;;;;;;;;;3.90;99.90;;;;;;5451272;26;19925;-74
2024/04/21 00:55:15;;;;;;;;;;;3.90;99.90;;;;;;5449082;26;20367;-74
2024/04/21 00:57:41;;;;;;;;;;;3.90;99.90;;;;;;5451120;26;20153;-73
2024/04/21 01:00:08;;;;;;;;;;;3.90;99.90;;;;;;5449056;26;20360;-73
2024/04/21 01:02:34;;;;;;;;;;;3.90;99.90;;;;;;5450962;26;19924;-74
2024/04/21 01:05:01;;;;;;;;;;;3.80;99.90;;;;;;5451165;26;19924;-74
2024/04/21 01:07:26;;;;;;;;;;;3.80;99.90;;;;;;5450811;26;20352;-74
2024/04/21 01:09:52;;;;;;;;;;;3.70;99.90;;;;;;5451978;26;19962;-74
2024/04/21 01:12:17;;;;;;;;;;;3.60;99.90;;;;;;5457891;26;19924;-75
2024/04/21 01:14:43;;;;;;;;;;;3.60;99.90;;;;;;5422229;26;19924;-74
2024/04/21 01:17:08;;;;;;;;;;;3.50;99.90;;;;;;5456010;26;19924;-74
2024/04/21 01:19:34;;;;;;;;;;;3.50;99.90;;;;;;5458975;26;19969;-75
2024/04/21 01:21:59;;;;;;;;;;;3.50;99.90;;;;;;5457230;26;19924;-74
2024/04/21 01:24:25;;;;;;;;;;;3.60;99.90;;;;;;5451402;26;20340;-72
2024/04/21 01:26:51;;;;;;;;;;;3.60;99.90;;;;;;5451424;26;20366;-73
2024/04/21 01:29:16;;;;;;;;;;;3.50;99.90;;;;;;5450180;26;20336;-73
2024/04/21 01:31:43;;;;;;;;;;;3.50;99.90;;;;;;5449514;26;19924;-73
2024/04/21 01:34:09;;;;;;;;;;;3.50;99.90;;;;;;5450724;26;19924;-74
2024/04/21 01:36:34;;;;;;;;;;;3.50;99.90;;;;;;5450629;26;20301;-73
2024/04/21 01:39:00;;;;;;;;;;;3.60;99.90;;;;;;5449891;26;19924;-72
2024/04/21 01:41:25;;;;;;;;;;;3.60;99.90;;;;;;5450608;26;19932;-73
2024/04/21 01:43:51;;;;;;;;;;;3.60;99.90;;;;;;5450786;26;20376;-74
2024/04/21 01:46:16;;;;;;;;;;;3.50;99.90;;;;;;5450760;26;19992;-73
2024/04/21 01:48:42;;;;;;;;;;;3.50;99.90;;;;;;5452849;26;19992;-74
2024/04/21 01:51:07;;;;;;;;;;;3.40;99.90;;;;;;5453837;26;19924;-73
2024/04/21 01:53:33;;;;;;;;;;;3.50;99.90;;;;;;5453311;26;19993;-74
2024/04/21 01:55:58;;;;;;;;;;;3.40;99.90;;;;;;5450630;26;19924;-74
2024/04/21 01:58:24;;;;;;;;;;;3.40;99.90;;;;;;5450193;26;19931;-74
2024/04/21 02:00:49;;;;;;;;;;;3.40;99.90;;;;;;5448362;26;19931;-73
2024/04/21 02:03:15;;;;;;;;;;;3.40;99.90;;;;;;5448414;26;19924;-74
2024/04/21 02:05:41;;;;;;;;;;;3.30;99.90;;;;;;5450491;26;19925;-74
2024/04/21 02:08:07;;;;;;;;;;;3.40;99.90;;;;;;5450933;26;20262;-74
2024/04/21 02:10:32;;;;;;;;;;;3.30;99.90;;;;;;5448389;26;19936;-74
2024/04/21 02:12:58;;;;;;;;;;;3.30;99.90;;;;;;5450006;26;20404;-73
2024/04/21 02:15:23;;;;;;;;;;;3.30;99.90;;;;;;5449878;26;19924;-74
2024/04/21 02:17:49;;;;;;;;;;;3.30;99.90;;;;;;5449468;26;19994;-73
2024/04/21 02:20:14;;;;;;;;;;;3.30;99.90;;;;;;5449744;26;19924;-72
2024/04/21 02:22:40;;;;;;;;;;;3.30;99.90;;;;;;5449898;26;19951;-74
2024/04/21 02:25:06;;;;;;;;;;;3.20;99.90;;;;;;5449569;26;19925;-74
2024/04/21 02:27:31;;;;;;;;;;;3.20;99.90;;;;;;5449573;26;19924;-74
2024/04/21 02:29:57;;;;;;;;;;;3.20;99.90;;;;;;5447417;26;20551;-74
2024/04/21 02:32:22;;;;;;;;;;;3.20;99.90;;;;;;5449777;26;20357;-74
2024/04/21 02:34:48;;;;;;;;;;;3.10;99.90;;;;;;5448152;26;19928;-73
2024/04/21 02:37:13;;;;;;;;;;;3.10;99.90;;;;;;5449747;26;19924;-73
2024/04/21 02:39:39;;;;;;;;;;;3.10;99.90;;;;;;5417418;26;19944;-73
2024/04/21 02:42:04;;;;;;;;;;;3.10;99.90;;;;;;5419229;26;19966;-73
2024/04/21 02:44:30;;;;;;;;;;;3.10;99.90;;;;;;5421118;26;19987;-74
2024/04/21 02:46:56;;;;;;;;;;;3.10;99.90;;;;;;5451042;26;19982;-74
2024/04/21 02:49:21;;;;;;;;;;;3.00;99.90;;;;;;5453083;26;20020;-74
2024/04/21 02:51:47;;;;;;;;;;;3.00;99.90;;;;;;5452699;26;19924;-74
2024/04/21 02:54:12;;;;;;;;;;;3.00;99.90;;;;;;5451047;26;20327;-74
2024/04/21 02:56:38;;;;;;;;;;;2.90;99.90;;;;;;5452874;26;19930;-74
2024/04/21 02:59:04;;;;;;;;;;;2.90;99.90;;;;;;5420634;26;20464;-73
2024/04/21 03:01:29;;;;;;;;;;;2.90;99.90;;;;;;5452833;26;19925;-74
2024/04/21 03:03:55;;;;;;;;;;;2.90;99.90;;;;;;5420921;26;20020;-73
2024/04/21 03:06:20;;;;;;;;;;;2.90;99.90;;;;;;5452483;26;20361;-72
2024/04/21 03:08:46;;;;;;;;;;;2.80;99.90;;;;;;5452653;26;19960;-73
2024/04/21 03:11:11;;;;;;;;;;;2.90;99.90;;;;;;5452702;26;19924;-75
2024/04/21 03:13:37;;;;;;;;;;;2.90;99.90;;;;;;5452064;26;20358;-73
2024/04/21 03:16:03;;;;;;;;;;;2.90;99.90;;;;;;5452350;26;20362;-74
2024/04/21 03:18:28;;;;;;;;;;;2.80;99.90;;;;;;5452020;26;20373;-73
2024/04/21 03:20:57;;;;;;;;;;;2.80;99.90;;;;;;5452204;26;19956;-74
2024/04/21 03:23:23;;;;;;;;;;;2.80;99.90;;;;;;5444489;26;19946;-74
2024/04/21 03:25:48;;;;;;;;;;;2.80;99.90;;;;;;5452247;26;19924;-73
2024/04/21 03:28:14;;;;;;;;;;;2.70;99.90;;;;;;5451796;26;20273;-73
2024/04/21 03:30:40;;;;;;;;;;;2.70;99.90;;;;;;5451891;26;19935;-73
2024/04/21 03:33:05;;;;;;;;;;;2.70;99.90;;;;;;5452139;26;19993;-74
2024/04/21 03:35:31;;;;;;;;;;;2.70;99.90;;;;;;5420065;26;19931;-73
2024/04/21 03:37:57;;;;;;;;;;;2.60;99.90;;;;;;5452306;26;19924;-73
2024/04/21 03:40:22;;;;;;;;;;;2.60;99.90;;;;;;5451886;26;19931;-73
2024/04/21 03:42:48;;;;;;;;;;;2.60;99.90;;;;;;5420312;26;19931;-74
2024/04/21 03:45:13;;;;;;;;;;;2.60;99.90;;;;;;5452186;26;19931;-73
2024/04/21 03:47:39;;;;;;;;;;;2.70;99.90;;;;;;5451965;26;19924;-73
2024/04/21 03:50:05;;;;;;;;;;;2.70;99.90;;;;;;5420334;26;19934;-73
2024/04/21 03:52:31;;;;;;;;;;;2.80;99.90;;;;;;5450587;26;19932;-74
2024/04/21 03:54:57;;;;;;;;;;;2.80;99.90;;;;;;5451472;26;19992;-73
2024/04/21 03:57:27;;;;;;;;;;;2.90;99.90;;;;;;5420027;26;19924;-74
2024/04/21 03:59:52;;;;;;;;;;;2.90;99.90;;;;;;5451920;26;20008;-73
2024/04/21 04:02:18;;;;;;;;;;;2.90;99.90;;;;;;5451910;26;20010;-74
2024/04/21 04:04:43;;;;;;;;;;;2.90;99.90;;;;;;5451868;26;20356;-73
2024/04/21 04:07:09;;;;;;;;;;;3.00;99.90;;;;;;5449883;26;20269;-73
2024/04/21 04:09:34;;;;;;;;;;;3.00;99.90;;;;;;5451841;26;19986;-74
2024/04/21 04:12:00;;;;;;;;;;;3.00;99.90;;;;;;5451682;26;20265;-74
2024/04/21 04:14:25;;;;;;;;;;;3.10;99.90;;;;;;5451619;26;20253;-74
2024/04/21 04:16:51;;;;;;;;;;;3.10;99.90;;;;;;5419701;26;20357;-73
2024/04/21 04:19:16;;;;;;;;;;;3.20;99.90;;;;;;5451998;26;19956;-73
2024/04/21 04:21:42;;;;;;;;;;;3.20;99.90;;;;;;5452754;26;19924;-73
2024/04/21 04:24:07;;;;;;;;;;;3.30;99.90;;;;;;5451706;26;19924;-74
2024/04/21 04:26:33;;;;;;;;;;;3.40;99.90;;;;;;5451716;26;19925;-74
2024/04/21 04:28:58;;;;;;;;;;;3.40;99.90;;;;;;5449610;26;19928;-74
2024/04/21 04:31:24;;;;;;;;;;;3.50;99.90;;;;;;5451547;26;19944;-74
2024/04/21 04:33:49;;;;;;;;;;;3.60;99.90;;;;;;5456338;26;19935;-74
2024/04/21 04:36:15;;;;;;;;;;;3.70;99.90;;;;;;5458197;26;19924;-73
2024/04/21 04:38:41;;;;;;;;;;;3.90;99.90;;;;;;5455717;26;19924;-74
2024/04/21 04:41:06;;;;;;;;;;;4.00;99.90;;;;;;5455993;26;19925;-74
2024/04/21 04:43:32;;;;;;;;;;;4.20;99.90;;;;;;5428094;26;20496;-74
2024/04/21 04:45:57;;;;;;;;;;;4.40;99.90;;;;;;5458418;26;19932;-73
2024/04/21 04:48:23;;;;;;;;;;;4.60;99.90;;;;;;5450281;26;19931;-73
2024/04/21 04:50:48;;;;;;;;;;;4.80;99.90;;;;;;5420172;26;21168;-71
2024/04/21 04:53:14;;;;;;;;;;;5.00;99.90;;;;;;5451241;26;19931;-74
2024/04/21 04:55:42;;;;;;;;;;;5.20;99.90;;;;;;5450472;26;19993;-73
2024/04/21 04:58:09;;;;;;;;;;;5.50;99.90;;;;;;5451100;26;19924;-74
2024/04/21 05:00:34;;;;;;;;;;;5.80;99.90;;;;;;5451080;26;20417;-74
2024/04/21 05:03:00;;;;;;;;;;;6.20;99.90;;;;;;5450815;26;19932;-74
2024/04/21 05:05:25;;;;;;;;;;;6.40;99.90;;;;;;5450343;26;20668;-73
2024/04/21 05:07:51;;;;;;;;;;;6.80;99.90;;;;;;5450874;26;19924;-74
2024/04/21 05:10:16;;;;;;;;;;;7.20;99.90;;;;;;5450648;26;19932;-73
2024/04/21 05:12:42;;;;;;;;;;;7.70;99.90;;;;;;5449059;26;19931;-73
2024/04/21 05:15:07;;;;;;;;;;;8.00;99.90;;;;;;5450783;26;20435;-72
2024/04/21 05:17:33;;;;;;;;;;;8.10;99.90;;;;;;5450503;26;19925;-72
2024/04/21 05:19:58;;;;;;;;;;;8.30;99.90;;;;;;5419163;26;19924;-75
2024/04/21 05:22:24;;;;;;;;;;;8.70;99.90;;;;;;5450510;26;19924;-74
2024/04/21 05:24:50;;;;;;;;;;;9.20;99.90;;;;;;5450767;26;19924;-73
2024/04/21 05:27:15;;;;;;;;;;;9.90;99.90;;;;;;5450492;26;19997;-72
2024/04/21 05:29:41;;;;;;;;;;;10.40;99.30;;;;;;5450248;26;19932;-74
2024/04/21 05:32:06;;;;;;;;;;;10.80;96.00;;;;;;5450328;26;20337;-72
2024/04/21 05:34:32;;;;;;;;;;;11.00;94.50;;;;;;5450419;26;20349;-74
2024/04/21 05:36:57;;;;;;;;;;;11.50;91.60;;;;;;5450330;26;20361;-73
2024/04/21 05:39:25;;;;;;;;;;;12.30;84.50;;;;;;5418452;26;19924;-74
2024/04/21 05:41:51;;;;;;;;;;;12.90;77.30;;;;;;5450248;26;19924;-73
2024/04/21 05:44:16;;;;;;;;;;;13.20;70.90;;;;;;5449961;26;19932;-72
2024/04/21 05:46:42;;;;;;;;;;;13.50;66.50;;;;;;5447711;26;19966;-74
2024/04/21 05:49:07;;;;;;;;;;;14.30;61.10;;;;;;5449997;26;19930;-74
2024/04/21 05:51:33;;;;;;;;;;;15.10;54.20;;;;;;5450131;26;19932;-73
2024/04/21 05:53:58;;;;;;;;;;;16.10;45.70;;;;;;5449821;26;20287;-74
2024/04/21 05:56:24;;;;;;;;;;;17.00;39.60;;;;;;5449616;26;19981;-74
2024/04/21 05:58:49;;;;;;;;;;;17.80;35.40;;;;;;5449836;26;19924;-74
2024/04/21 06:01:15;;;;;;;;;;;18.40;31.00;;;;;;5448009;26;19993;-74
2024/04/21 06:03:40;;;;;;;;;;;18.90;28.60;;;;;;5417726;26;19973;-72
2024/04/21 06:06:06;;;;;;;;;;;19.30;26.90;;;;;;5449569;26;19925;-73
2024/04/21 06:08:32;;;;;;;;;;;19.60;25.80;;;;;;5449784;26;19993;-74
2024/04/21 06:10:57;;;;;;;;;;;19.90;25.00;;;;;;5449819;26;19925;-74
2024/04/21 06:13:23;;;;;;;;;;;20.10;23.50;;;;;;5449938;26;20041;-74
2024/04/21 06:15:48;;;;;;;;;;;20.20;23.60;;;;;;5449736;26;20406;-74
2024/04/21 06:18:14;;;;;;;;;;;20.40;22.30;;;;;;5453008;26;20362;-74
2024/04/21 06:20:39;;;;;;;;;;;20.20;23.00;;;;;;5421133;26;19989;-75
2024/04/21 06:23:06;;;;;;;;;;;20.00;22.90;;;;;;5450928;26;20362;-75
2024/04/21 06:25:32;;;;;;;;;;;20.00;23.00;;;;;;5453197;26;19961;-73
2024/04/21 06:27:57;;;;;;;;;;;20.00;22.60;;;;;;5421118;26;19924;-75
2024/04/21 06:30:23;;;;;;;;;;;19.80;23.10;;;;;;5421073;26;20254;-74
2024/04/21 06:32:49;;;;;;;;;;;19.80;23.60;;;;;;5452819;26;19931;-74
2024/04/21 06:35:14;;;;;;;;;;;19.60;24.30;;;;;;5445195;26;19932;-74
2024/04/21 06:37:40;;;;;;;;;;;19.50;24.90;;;;;;5416963;26;20369;-74
2024/04/21 06:40:06;;;;;;;;;;;19.50;25.70;;;;;;5416823;26;19924;-73
2024/04/21 06:42:31;;;;;;;;;;;19.50;26.30;;;;;;5417007;26;19932;-74
2024/04/21 06:44:57;;;;;;;;;;;19.60;24.70;;;;;;5416703;26;19931;-73
2024/04/21 06:47:22;;;;;;;;;;;19.60;24.70;;;;;;5416658;26;19925;-73
2024/04/21 06:49:48;;;;;;;;;;;19.80;24.50;;;;;;5415004;26;19957;-74
2024/04/21 06:52:13;;;;;;;;;;;19.80;24.30;;;;;;5416644;26;19924;-74
2024/04/21 06:54:39;;;;;;;;;;;20.00;23.80;;;;;;5416914;26;19936;-73
2024/04/21 06:57:05;;;;;;;;;;;20.10;24.00;;;;;;5414833;26;19932;-74
2024/04/21 06:59:30;;;;;;;;;;;20.20;24.10;;;;;;5416833;26;19925;-74
2024/04/21 07:01:56;;;;;;;;;;;20.40;23.90;;;;;;5416746;26;19931;-74
2024/04/21 07:04:21;;;;;;;;;;;20.40;23.00;;;;;;5416658;26;19925;-75
2024/04/21 07:06:47;;;;;;;;;;;20.20;23.70;;;;;;5413936;26;19932;-74
2024/04/21 07:09:12;;;;;;;;;;;20.60;23.20;;;;;;5416026;26;19925;-73
2024/04/21 07:11:38;;;;;;;;;;;20.40;23.20;;;;;;5444603;26;20278;-74
2024/04/21 07:14:03;;;;;;;;;;;20.70;23.10;;;;;;5414531;26;20361;-74
2024/04/21 07:16:29;;;;;;;;;;;20.80;23.30;;;;;;5413701;26;20258;-74
2024/04/21 07:18:54;;;;;;;;;;;21.00;22.50;;;;;;5416280;26;19928;-75
2024/04/21 07:21:20;;;;;;;;;;;21.20;22.00;;;;;;5414725;26;20351;-74
2024/04/21 07:23:45;;;;;;;;;;;21.60;21.30;;;;;;5416143;26;19937;-74
2024/04/21 07:26:11;;;;;;;;;;;21.70;20.20;;;;;;5416011;26;19989;-74
2024/04/21 07:28:36;;;;;;;;;;;21.50;20.70;;;;;;5416022;26;20315;-75
2024/04/21 07:31:02;;;;;;;;;;;21.80;20.20;;;;;;5416035;26;19933;-73
2024/04/21 07:33:28;;;;;;;;;;;22.00;19.60;;;;;;5418277;26;19953;-73
2024/04/21 07:35:54;;;;;;;;;;;22.20;19.60;;;;;;5420145;26;19936;-74
2024/04/21 07:38:19;;;;;;;;;;;22.10;20.10;;;;;;5451815;26;19924;-74
2024/04/21 07:40:45;;;;;;;;;;;22.20;19.50;;;;;;5451591;26;19936;-72
2024/04/21 07:43:11;;;;;;;;;;;22.50;18.40;;;;;;5451355;26;19936;-73
2024/04/21 07:45:37;;;;;;;;;;;22.80;18.10;;;;;;5451716;26;19931;-74
2024/04/21 07:48:03;;;;;;;;;;;23.00;18.10;;;;;;5451660;26;19984;-73
2024/04/21 07:50:29;;;;;;;;;;;23.70;16.60;;;;;;5451388;26;20482;-74
2024/04/21 07:52:54;;;;;;;;;;;23.70;16.90;;;;;;5451686;26;20010;-74
2024/04/21 07:55:20;;;;;;;;;;;23.80;16.80;;;;;;5451336;26;19925;-74
2024/04/21 07:57:45;;;;;;;;;;;23.80;16.60;;;;;;5419730;26;19924;-75
2024/04/21 08:00:11;;;;;;;;;;;24.30;15.90;;;;;;5451205;26;20559;-74
2024/04/21 08:02:37;;;;;;;;;;;24.70;14.50;;;;;;5452024;26;19956;-74
2024/04/21 08:05:02;;;;;;;;;;;25.00;14.50;;;;;;5451835;26;19924;-74
2024/04/21 08:07:28;;;;;;;;;;;25.30;14.20;;;;;;5451513;26;19932;-74
2024/04/21 08:09:53;;;;;;;;;;;25.70;13.80;;;;;;5448706;26;20314;-73
2024/04/21 08:12:19;;;;;;;;;;;26.20;12.60;;;;;;5451359;26;19993;-73
2024/04/21 08:14:45;;;;;;;;;;;26.20;12.60;;;;;;5448493;26;20285;-73
2024/04/21 08:17:11;;;;;;;;;;;26.60;12.10;;;;;;5450545;26;19924;-73
2024/04/21 08:19:36;;;;;;;;;;;26.50;11.90;;;;;;5418016;26;19932;-74
2024/04/21 08:22:02;;;;;;;;;;;26.10;11.50;;;;;;5449039;26;19925;-73
2024/04/21 08:24:28;;;;;;;;;;;25.20;11.80;;;;;;5450817;26;19935;-74
2024/04/21 08:26:54;;;;;;;;;;;24.10;13.10;;;;;;5444142;26;20720;-73
2024/04/21 08:29:22;;;;;;;;;;;23.00;14.60;;;;;;5451041;26;19925;-74
2024/04/21 08:31:47;;;;;;;;;;;22.20;15.70;;;;;;5451072;26;20253;-74
2024/04/21 08:34:13;;;;;;;;;;;21.50;17.00;;;;;;5418984;26;19925;-74
2024/04/21 08:36:38;;;;;;;;;;;21.70;15.80;;;;;;5419351;26;19935;-73
2024/04/21 08:39:04;;;;;;;;;;;21.50;15.70;;;;;;5418453;26;20430;-74
2024/04/21 08:41:33;;;;;;;;;;;21.80;16.40;;;;;;5450917;26;20371;-74
2024/04/21 08:43:59;;;;;;;;;;;21.40;17.10;;;;;;5449010;26;19948;-74
2024/04/21 08:46:24;;;;;;;;;;;20.90;17.80;;;;;;5450461;26;19966;-74
2024/04/21 08:48:50;;;;;;;;;;;20.20;18.90;;;;;;5419089;26;19993;-74
2024/04/21 08:51:16;;;;;;;;;;;19.60;19.90;;;;;;5419043;26;19933;-74
2024/04/21 08:53:41;;;;;;;;;;;19.40;21.40;;;;;;5450658;26;19932;-74
2024/04/21 08:56:19;;;;;;;;;;;19.40;20.70;;;;;;5418921;26;19964;-74
2024/04/21 08:58:50;;;;;;;;;;;19.50;20.20;;;;;;5450645;26;19932;-73
2024/04/21 09:01:18;;;;;;;;;;;19.50;19.70;;;;;;5449055;26;19932;-73
2024/04/21 09:03:45;;;;;;;;;;;19.00;20.40;;;;;;5450453;26;19924;-74
2024/04/21 09:06:11;;;;;;;;;;;18.60;22.40;;;;;;5419000;26;19932;-74
2024/04/21 09:08:37;;;;;;;;;;;18.80;22.70;;;;;;5450722;26;20376;-73
2024/04/21 09:11:03;;;;;;;;;;;19.30;22.80;;;;;;5450557;26;19925;-73
2024/04/21 09:13:28;;;;;;;;;;;19.30;21.00;;;;;;5448498;26;19928;-74
2024/04/21 09:15:54;;;;;;;;;;;19.10;21.00;;;;;;5448652;26;19993;-74
2024/04/21 09:18:19;;;;;;;;;;;18.80;21.30;;;;;;5450659;26;19924;-74
2024/04/21 09:20:45;;;;;;;;;;;18.30;22.50;;;;;;5450754;26;19931;-75
2024/04/21 09:23:11;;;;;;;;;;;17.90;21.40;;;;;;5450963;26;19931;-74
2024/04/21 09:25:36;;;;;;;;;;;17.70;22.30;;;;;;5450080;26;19924;-73
2024/04/21 09:28:02;;;;;;;;;;;17.30;22.70;;;;;;5450595;26;20357;-73
2024/04/21 09:30:27;;;;;;;;;;;16.90;23.40;;;;;;5450429;26;20261;-74
2024/04/21 09:32:53;;;;;;;;;;;16.80;24.60;;;;;;5449922;26;19924;-74
2024/04/21 09:35:19;;;;;;;;;;;16.60;25.30;;;;;;5450192;26;19993;-74
2024/04/21 09:37:45;;;;;;;;;;;16.00;26.00;;;;;;5450159;26;20257;-73
2024/04/21 09:40:12;;;;;;;;;;;15.80;26.50;;;;;;5449603;26;20393;-73
2024/04/21 09:42:38;;;;;;;;;;;15.50;27.70;;;;;;5418326;26;20484;-73
2024/04/21 09:45:05;;;;;;;;;;;15.50;28.80;;;;;;5449968;26;19936;-73
2024/04/21 09:47:31;;;;;;;;;;;15.40;27.80;;;;;;5449939;26;19931;-72
2024/04/21 09:49:57;;;;;;;;;;;15.40;28.30;;;;;;5448257;26;19948;-73
2024/04/21 09:52:25;;;;;;;;;;;15.30;29.00;;;;;;5446639;26;19931;-73
2024/04/21 09:54:52;;;;;;;;;;;15.30;29.10;;;;;;5442292;26;19948;-73
2024/04/21 09:57:18;;;;;;;;;;;15.20;29.60;;;;;;5447998;26;20253;-73
2024/04/21 09:59:44;;;;;;;;;;;15.20;29.80;;;;;;5450042;26;19924;-73
2024/04/21 10:02:19;;;;;;;;;;;15.20;31.50;;;;;;5449786;26;19924;-74
2024/04/21 10:04:50;;;;;;;;;;;15.10;32.30;;;;;;5449875;26;19932;-74
2024/04/21 10:07:16;;;;;;;;;;;15.10;32.80;;;;;;5448159;26;19953;-72
2024/04/21 10:09:43;;;;;;;;;;;14.90;35.60;;;;;;5448022;26;19924;-73
2024/04/21 10:12:08;;;;;;;;;;;14.90;36.90;;;;;;5449937;26;20427;-73
2024/04/21 10:14:34;;;;;;;;;;;14.80;39.10;;;;;;5417599;26;20361;-75
2024/04/21 10:17:00;;;;;;;;;;;14.80;40.60;;;;;;5449586;26;20261;-73
2024/04/21 10:19:26;;;;;;;;;;;14.90;42.90;;;;;;5449615;26;19940;-73
2024/04/21 10:21:51;;;;;;;;;;;15.00;40.50;;;;;;5448666;26;19924;-74
2024/04/21 10:24:18;;;;;;;;;;;15.10;39.80;;;;;;5449220;26;19932;-73
2024/04/21 10:26:44;;;;;;;;;;;15.20;37.80;;;;;;5449508;26;20378;-73
2024/04/21 10:29:09;;;;;;;;;;;15.40;38.10;;;;;;5449339;26;19931;-73
2024/04/21 10:31:35;;;;;;;;;;;15.70;36.50;;;;;;5449159;26;20242;-73
2024/04/21 10:34:04;;;;;;;;;;;16.10;38.10;;;;;;5449203;26;20338;-73
2024/04/21 10:36:38;;;;;;;;;;;16.50;36.10;;;;;;5447190;26;20306;-73
2024/04/21 10:39:04;;;;;;;;;;;16.80;33.10;;;;;;5449007;26;19924;-74
2024/04/21 10:41:31;;;;;;;;;;;16.90;30.80;;;;;;5416638;26;19983;-73
2024/04/21 10:43:56;;;;;;;;;;;17.00;31.60;;;;;;5448581;26;19924;-73
2024/04/21 10:46:22;;;;;;;;;;;17.10;29.50;;;;;;5448906;26;20394;-74
2024/04/21 10:48:48;;;;;;;;;;;17.10;29.40;;;;;;5449058;26;20269;-74
2024/04/21 10:51:13;;;;;;;;;;;17.00;27.60;;;;;;5448906;26;19924;-74
2024/04/21 10:53:39;;;;;;;;;;;16.50;27.80;;;;;;5448975;26;19925;-73
2024/04/21 10:56:04;;;;;;;;;;;16.40;28.30;;;;;;5441718;26;19924;-74
2024/04/21 10:58:30;;;;;;;;;;;16.20;27.50;;;;;;5448733;26;20370;-74
2024/04/21 11:00:56;;;;;;;;;;;16.10;29.40;;;;;;5448730;26;19924;-73
2024/04/21 11:03:21;;;;;;;;;;;16.00;29.80;;;;;;5449306;26;19924;-74
2024/04/21 11:05:55;;;;;;;;;;;16.00;28.80;;;;;;5450503;26;20387;-73
2024/04/21 11:08:23;;;;;;;;;;;16.10;30.00;;;;;;5452537;26;19931;-74
2024/04/21 11:10:49;;;;;;;;;;;16.20;29.10;;;;;;5452467;26;19924;-74
2024/04/21 11:13:14;;;;;;;;;;;16.30;27.70;;;;;;5452380;26;19931;-74
2024/04/21 11:15:41;;;;;;;;;;;16.30;27.20;;;;;;5451979;26;19932;-74
2024/04/21 11:18:06;;;;;;;;;;;16.40;26.10;;;;;;5451651;26;19931;-73
2024/04/21 11:20:32;;;;;;;;;;;16.20;24.70;;;;;;5420319;26;19924;-74
2024/04/21 11:22:58;;;;;;;;;;;16.20;24.80;;;;;;5452156;26;19924;-74
2024/04/21 11:25:24;;;;;;;;;;;16.10;25.20;;;;;;5452420;26;19924;-74
2024/04/21 11:27:50;;;;;;;;;;;16.00;25.20;;;;;;5420700;26;20435;-74
2024/04/21 11:30:23;;;;;;;;;;;16.10;25.80;;;;;;5452364;26;19925;-74
2024/04/21 11:32:49;;;;;;;;;;;16.00;27.20;;;;;;5420113;26;20423;-72
2024/04/21 11:35:14;;;;;;;;;;;16.00;27.20;;;;;;5451971;26;19932;-73
2024/04/21 11:37:40;;;;;;;;;;;16.20;26.80;;;;;;5452064;26;19993;-73
2024/04/21 11:40:06;;;;;;;;;;;16.30;28.30;;;;;;5420258;26;19957;-73
2024/04/21 11:42:32;;;;;;;;;;;16.50;27.90;;;;;;5452586;26;20337;-73
2024/04/21 11:44:57;;;;;;;;;;;16.60;23.10;;;;;;5449989;26;19931;-73
2024/04/21 11:47:23;;;;;;;;;;;16.60;23.00;;;;;;5451803;26;19932;-73
2024/04/21 11:49:48;;;;;;;;;;;16.60;22.40;;;;;;5451645;26;19925;-74
2024/04/21 11:52:14;;;;;;;;;;;16.50;23.20;;;;;;5451849;26;19932;-73
2024/04/21 11:54:39;;;;;;;;;;;16.70;24.90;;;;;;5451406;26;19966;-73
2024/04/21 11:57:05;;;;;;;;;;;16.90;24.50;;;;;;5419500;26;19925;-73
2024/04/21 11:59:31;;;;;;;;;;;17.10;23.80;;;;;;5451561;26;19931;-73
2024/04/21 12:01:56;;;;;;;;;;;17.40;24.40;;;;;;5451536;26;20262;-74
2024/04/21 12:04:22;;;;;;;;;;;17.60;23.90;;;;;;5420090;26;19925;-73
2024/04/21 12:06:48;;;;;;;;;;;17.80;22.60;;;;;;5451601;26;19932;-74
2024/04/21 12:09:13;;;;;;;;;;;18.00;23.80;;;;;;5451586;26;19936;-74
2024/04/21 12:11:39;;;;;;;;;;;18.30;23.40;;;;;;5451347;26;19931;-73
2024/04/21 12:14:28;;;;;;;;;;;18.50;21.80;;;;;;5450095;26;19925;-74
2024/04/21 12:16:54;;;;;;;;;;;18.60;20.80;;;;;;5433121;26;19924;-72
2024/04/21 12:19:20;;;;;;;;;;;18.70;19.90;;;;;;5449003;26;19931;-71
2024/04/21 12:21:45;;;;;;;;;;;18.80;20.20;;;;;;5451037;26;19936;-75
2024/04/21 12:24:11;;;;;;;;;;;19.00;19.80;;;;;;5419513;26;19932;-74
2024/04/21 12:26:37;;;;;;;;;;;19.00;17.50;;;;;;5451408;26;19931;-73
2024/04/21 12:29:03;;;;;;;;;;;18.90;16.80;;;;;;5449709;26;19965;-74
2024/04/21 12:31:29;;;;;;;;;;;18.70;18.50;;;;;;5451228;26;19933;-74
2024/04/21 12:33:54;;;;;;;;;;;18.40;19.70;;;;;;5451321;26;19925;-75
2024/04/21 12:36:20;;;;;;;;;;;18.20;20.00;;;;;;5451049;26;19924;-73
2024/04/21 12:38:45;;;;;;;;;;;17.60;19.90;;;;;;5451122;26;19924;-74
2024/04/21 12:41:11;;;;;;;;;;;17.10;21.70;;;;;;5451028;26;19952;-72
2024/04/21 12:43:37;;;;;;;;;;;16.80;20.90;;;;;;5451317;26;19960;-72
2024/04/21 12:46:02;;;;;;;;;;;16.30;21.80;;;;;;5450895;26;20436;-73
2024/04/21 12:48:28;;;;;;;;;;;16.00;22.70;;;;;;5448900;26;20288;-72
2024/04/21 12:50:53;;;;;;;;;;;15.80;23.10;;;;;;5450527;26;20043;-73
2024/04/21 12:53:19;;;;;;;;;;;15.70;23.90;;;;;;5451165;26;19936;-73
2024/04/21 12:55:44;;;;;;;;;;;15.50;23.30;;;;;;5448945;26;20337;-72
2024/04/21 12:58:10;;;;;;;;;;;15.50;23.90;;;;;;5450628;26;19935;-73
2024/04/21 13:00:35;;;;;;;;;;;15.50;24.00;;;;;;5450799;26;19932;-72
2024/04/21 13:03:01;;;;;;;;;;;15.80;23.00;;;;;;5450842;26;19990;-73
2024/04/21 13:05:27;;;;;;;;;;;16.00;22.30;;;;;;5450934;26;19924;-72
2024/04/21 13:07:53;;;;;;;;;;;16.30;21.60;;;;;;5450651;26;20247;-73
2024/04/21 13:10:18;;;;;;;;;;;16.40;21.70;;;;;;5450440;26;19936;-73
2024/04/21 13:12:44;;;;;;;;;;;16.50;23.30;;;;;;5450420;26;19932;-72
2024/04/21 13:15:09;;;;;;;;;;;16.50;22.60;;;;;;5418926;26;19925;-72
2024/04/21 13:17:35;;;;;;;;;;;16.40;23.10;;;;;;5450726;26;19932;-72
2024/04/21 13:20:01;;;;;;;;;;;16.30;24.00;;;;;;5450306;26;19931;-72
2024/04/21 13:22:26;;;;;;;;;;;16.30;24.50;;;;;;5450111;26;19932;-73
2024/04/21 13:24:54;;;;;;;;;;;16.40;24.60;;;;;;5450090;26;19924;-73
2024/04/21 13:27:19;;;;;;;;;;;16.50;24.40;;;;;;5448086;26;19925;-72
2024/04/21 13:29:45;;;;;;;;;;;16.50;24.60;;;;;;5450032;26;19925;-74
2024/04/21 13:32:11;;;;;;;;;;;16.80;24.50;;;;;;5418345;26;19925;-72
2024/04/21 13:34:37;;;;;;;;;;;16.70;23.90;;;;;;5450194;26;20295;-72
2024/04/21 13:37:02;;;;;;;;;;;16.80;23.40;;;;;;5441160;26;20543;-72
2024/04/21 13:39:28;;;;;;;;;;;16.90;24.00;;;;;;5449743;26;20417;-73
2024/04/21 13:41:54;;;;;;;;;;;17.00;22.70;;;;;;5450310;26;20357;-72
2024/04/21 13:44:23;;;;;;;;;;;16.90;22.10;;;;;;5418209;26;19936;-72
2024/04/21 13:46:48;;;;;;;;;;;16.80;22.90;;;;;;5449907;26;20246;-73
2024/04/21 13:49:14;;;;;;;;;;;16.80;22.50;;;;;;5450078;26;19956;-73
2024/04/21 13:51:39;;;;;;;;;;;16.80;21.70;;;;;;5418263;26;19993;-72
2024/04/21 13:54:05;;;;;;;;;;;16.80;22.20;;;;;;5447699;26;20484;-73
2024/04/21 13:56:31;;;;;;;;;;;16.60;23.10;;;;;;5449790;26;20353;-73
2024/04/21 13:58:57;;;;;;;;;;;16.70;22.50;;;;;;5448205;26;19932;-72
2024/04/21 14:01:22;;;;;;;;;;;16.80;22.40;;;;;;5449847;26;19924;-73
2024/04/21 14:03:48;;;;;;;;;;;16.70;20.50;;;;;;5449872;26;20357;-72
2024/04/21 14:06:14;;;;;;;;;;;16.30;21.50;;;;;;5417742;26;19925;-73
2024/04/21 14:08:39;;;;;;;;;;;16.20;19.60;;;;;;5449339;26;19932;-73
2024/04/21 14:11:05;;;;;;;;;;;15.90;20.20;;;;;;5449363;26;19960;-72
2024/04/21 14:13:31;;;;;;;;;;;15.80;21.50;;;;;;5449411;26;19931;-72